sensor_id;sensor_type;location;lat;lon;timestamp;pressure;altitude;pressure_sealevel;temperature;humidity
77147;BME280;66121;52.584;9.694;2023-04-25T00:01:56;100300.91;;;6.95;86.75
77147;BME280;66121;52.584;9.694;2023-04-25T00:04:22;100289.06;;;6.91;86.89
77147;BME280;66121;52.584;9.694;2023-04-25T00:06:48;100278.97;;;6.95;87.23
77147;BME280;66121;52.584;9.694;2023-04-25T00:09:13;100283.66;;;6.94;87.06
77147;BME280;66121;52.584;9.694;2023-04-25T00:11:40;100286.38;;;6.94;86.63
77147;BME280;66121;52.584;9.694;2023-04-25T00:14:05;100282.81;;;6.90;87.20
77147;BME280;66121;52.584;9.694;2023-04-25T00:16:31;100283.56;;;6.91;86.17
77147;BME280;66121;52.584;9.694;2023-04-25T00:18:59;100292.25;;;6.93;86.22
77147;BME280;66121;52.584;9.694;2023-04-25T00:21:24;100278.72;;;6.81;86.57
77147;BME280;66121;52.584;9.694;2023-04-25T00:23:52;100294.94;;;6.89;86.60
77147;BME280;66121;52.584;9.694;2023-04-25T00:26:17;100299.28;;;6.90;85.89
77147;BME280;66121;52.584;9.694;2023-04-25T00:28:43;100296.06;;;6.88;86.69
77147;BME280;66121;52.584;9.694;2023-04-25T00:31:08;100291.78;;;6.87;86.83
77147;BME280;66121;52.584;9.694;2023-04-25T00:33:33;100293.41;;;6.92;86.29
77147;BME280;66121;52.584;9.694;2023-04-25T00:35:59;100291.50;;;6.96;86.58
77147;BME280;66121;52.584;9.694;2023-04-25T00:38:24;100288.59;;;6.85;86.92
77147;BME280;66121;52.584;9.694;2023-04-25T00:40:49;100282.84;;;6.94;86.51
77147;BME280;66121;52.584;9.694;2023-04-25T00:43:15;100295.00;;;6.93;86.59
77147;BME280;66121;52.584;9.694;2023-04-25T00:45:42;100293.16;;;7.00;87.00
77147;BME280;66121;52.584;9.694;2023-04-25T00:48:08;100277.69;;;6.89;86.71
77147;BME280;66121;52.584;9.694;2023-04-25T00:50:34;100286.88;;;7.00;86.69
77147;BME280;66121;52.584;9.694;2023-04-25T00:53:00;100292.97;;;6.90;86.95
77147;BME280;66121;52.584;9.694;2023-04-25T00:55:26;100288.72;;;6.92;85.95
77147;BME280;66121;52.584;9.694;2023-04-25T00:57:52;100278.84;;;6.88;87.13
77147;BME280;66121;52.584;9.694;2023-04-25T01:00:18;100279.00;;;6.98;87.27
77147;BME280;66121;52.584;9.694;2023-04-25T01:02:44;100280.06;;;6.90;86.47
77147;BME280;66121;52.584;9.694;2023-04-25T01:05:10;100285.09;;;6.88;87.30
77147;BME280;66121;52.584;9.694;2023-04-25T01:07:35;100273.38;;;6.88;87.02
77147;BME280;66121;52.584;9.694;2023-04-25T01:10:01;100289.13;;;6.94;86.97
77147;BME280;66121;52.584;9.694;2023-04-25T01:12:26;100284.03;;;6.93;87.39
77147;BME280;66121;52.584;9.694;2023-04-25T01:14:51;100284.88;;;6.97;86.72
77147;BME280;66121;52.584;9.694;2023-04-25T01:17:18;100277.78;;;6.96;87.14
77147;BME280;66121;52.584;9.694;2023-04-25T01:19:44;100279.78;;;6.99;87.10
77147;BME280;66121;52.584;9.694;2023-04-25T01:22:11;100280.28;;;7.04;87.32
77147;BME280;66121;52.584;9.694;2023-04-25T01:24:36;100280.59;;;6.99;87.26
77147;BME280;66121;52.584;9.694;2023-04-25T01:27:02;100272.69;;;6.94;87.02
77147;BME280;66121;52.584;9.694;2023-04-25T01:29:28;100281.22;;;6.89;87.83
77147;BME280;66121;52.584;9.694;2023-04-25T01:31:54;100277.47;;;7.01;87.86
77147;BME280;66121;52.584;9.694;2023-04-25T01:34:19;100279.09;;;7.05;88.61
77147;BME280;66121;52.584;9.694;2023-04-25T01:36:45;100283.97;;;6.89;89.70
77147;BME280;66121;52.584;9.694;2023-04-25T01:39:11;100286.91;;;6.77;90.90
77147;BME280;66121;52.584;9.694;2023-04-25T01:41:36;100292.00;;;6.79;91.17
77147;BME280;66121;52.584;9.694;2023-04-25T01:44:02;100283.97;;;6.67;91.71
77147;BME280;66121;52.584;9.694;2023-04-25T01:46:27;100290.59;;;6.66;92.35
77147;BME280;66121;52.584;9.694;2023-04-25T01:48:53;100279.41;;;6.52;93.54
77147;BME280;66121;52.584;9.694;2023-04-25T01:51:19;100289.53;;;6.47;93.59
77147;BME280;66121;52.584;9.694;2023-04-25T01:53:44;100306.94;;;6.59;93.43
77147;BME280;66121;52.584;9.694;2023-04-25T01:56:09;100301.53;;;6.85;92.72
77147;BME280;66121;52.584;9.694;2023-04-25T01:58:35;100317.38;;;6.72;92.45
77147;BME280;66121;52.584;9.694;2023-04-25T02:01:00;100318.78;;;6.63;92.85
77147;BME280;66121;52.584;9.694;2023-04-25T02:03:26;100313.09;;;6.52;91.76
77147;BME280;66121;52.584;9.694;2023-04-25T02:05:51;100322.84;;;6.49;92.07
77147;BME280;66121;52.584;9.694;2023-04-25T02:08:17;100329.00;;;6.66;91.61
77147;BME280;66121;52.584;9.694;2023-04-25T02:10:43;100334.66;;;6.54;91.39
77147;BME280;66121;52.584;9.694;2023-04-25T02:13:08;100339.28;;;6.49;92.36
77147;BME280;66121;52.584;9.694;2023-04-25T02:15:33;100333.81;;;6.49;92.54
77147;BME280;66121;52.584;9.694;2023-04-25T02:17:59;100350.88;;;6.62;91.79
77147;BME280;66121;52.584;9.694;2023-04-25T02:20:25;100338.44;;;6.45;91.71
77147;BME280;66121;52.584;9.694;2023-04-25T02:22:51;100340.00;;;6.46;91.47
77147;BME280;66121;52.584;9.694;2023-04-25T02:25:17;100336.94;;;6.29;89.63
77147;BME280;66121;52.584;9.694;2023-04-25T02:27:45;100346.16;;;6.40;89.86
77147;BME280;66121;52.584;9.694;2023-04-25T02:30:10;100349.63;;;6.37;90.73
77147;BME280;66121;52.584;9.694;2023-04-25T02:32:36;100353.66;;;6.43;90.99
77147;BME280;66121;52.584;9.694;2023-04-25T02:35:01;100348.19;;;6.43;89.90
77147;BME280;66121;52.584;9.694;2023-04-25T02:37:31;100353.50;;;6.36;90.28
77147;BME280;66121;52.584;9.694;2023-04-25T02:39:56;100351.81;;;6.28;89.99
77147;BME280;66121;52.584;9.694;2023-04-25T02:42:21;100355.81;;;6.34;88.72
77147;BME280;66121;52.584;9.694;2023-04-25T02:44:47;100350.28;;;6.30;89.13
77147;BME280;66121;52.584;9.694;2023-04-25T02:47:12;100353.81;;;6.31;89.98
77147;BME280;66121;52.584;9.694;2023-04-25T02:49:37;100351.94;;;6.35;89.49
77147;BME280;66121;52.584;9.694;2023-04-25T02:52:03;100353.03;;;6.30;89.73
77147;BME280;66121;52.584;9.694;2023-04-25T02:54:28;100362.09;;;6.34;90.26
77147;BME280;66121;52.584;9.694;2023-04-25T02:56:53;100354.00;;;6.41;90.10
77147;BME280;66121;52.584;9.694;2023-04-25T02:59:19;100350.34;;;6.34;89.86
77147;BME280;66121;52.584;9.694;2023-04-25T03:01:44;100339.97;;;6.24;89.93
77147;BME280;66121;52.584;9.694;2023-04-25T03:04:10;100345.09;;;6.25;90.11
77147;BME280;66121;52.584;9.694;2023-04-25T03:06:35;100347.75;;;6.22;90.26
77147;BME280;66121;52.584;9.694;2023-04-25T03:09:00;100349.28;;;6.19;90.48
77147;BME280;66121;52.584;9.694;2023-04-25T03:11:26;100355.75;;;6.11;90.86
77147;BME280;66121;52.584;9.694;2023-04-25T03:13:51;100355.75;;;6.11;90.85
77147;BME280;66121;52.584;9.694;2023-04-25T03:16:16;100356.94;;;6.10;91.04
77147;BME280;66121;52.584;9.694;2023-04-25T03:18:42;100363.50;;;6.06;90.75
77147;BME280;66121;52.584;9.694;2023-04-25T03:21:07;100364.94;;;6.00;91.25
77147;BME280;66121;52.584;9.694;2023-04-25T03:23:32;100355.34;;;5.90;90.83
77147;BME280;66121;52.584;9.694;2023-04-25T03:25:58;100371.50;;;5.95;90.71
77147;BME280;66121;52.584;9.694;2023-04-25T03:28:23;100360.31;;;5.84;90.92
77147;BME280;66121;52.584;9.694;2023-04-25T03:30:48;100372.28;;;5.96;90.35
77147;BME280;66121;52.584;9.694;2023-04-25T03:33:14;100372.13;;;5.89;90.18
77147;BME280;66121;52.584;9.694;2023-04-25T03:35:39;100369.75;;;5.87;90.52
77147;BME280;66121;52.584;9.694;2023-04-25T03:38:04;100386.19;;;5.87;89.87
77147;BME280;66121;52.584;9.694;2023-04-25T03:40:30;100394.63;;;5.98;90.32
77147;BME280;66121;52.584;9.694;2023-04-25T03:42:55;100391.47;;;5.96;89.81
77147;BME280;66121;52.584;9.694;2023-04-25T03:45:21;100395.53;;;5.86;89.52
77147;BME280;66121;52.584;9.694;2023-04-25T03:47:46;100398.63;;;5.84;89.92
77147;BME280;66121;52.584;9.694;2023-04-25T03:50:11;100405.72;;;5.86;89.91
77147;BME280;66121;52.584;9.694;2023-04-25T03:52:36;100407.28;;;5.87;89.47
77147;BME280;66121;52.584;9.694;2023-04-25T03:55:02;100417.81;;;5.84;89.72
77147;BME280;66121;52.584;9.694;2023-04-25T03:57:27;100424.13;;;5.89;89.48
77147;BME280;66121;52.584;9.694;2023-04-25T03:59:53;100416.28;;;5.87;89.57
77147;BME280;66121;52.584;9.694;2023-04-25T04:02:18;100408.25;;;5.78;89.33
77147;BME280;66121;52.584;9.694;2023-04-25T04:04:43;100416.03;;;5.76;89.23
77147;BME280;66121;52.584;9.694;2023-04-25T04:07:09;100426.34;;;5.83;89.21
77147;BME280;66121;52.584;9.694;2023-04-25T04:09:35;100431.84;;;5.83;88.12
77147;BME280;66121;52.584;9.694;2023-04-25T04:12:00;100440.28;;;5.94;87.61
77147;BME280;66121;52.584;9.694;2023-04-25T04:14:26;100442.03;;;6.02;87.62
77147;BME280;66121;52.584;9.694;2023-04-25T04:16:52;100443.03;;;5.94;87.94
77147;BME280;66121;52.584;9.694;2023-04-25T04:19:17;100431.50;;;5.84;88.56
77147;BME280;66121;52.584;9.694;2023-04-25T04:21:42;100437.28;;;5.99;87.83
77147;BME280;66121;52.584;9.694;2023-04-25T04:24:08;100446.22;;;5.96;88.34
77147;BME280;66121;52.584;9.694;2023-04-25T04:26:33;100443.97;;;6.01;88.40
77147;BME280;66121;52.584;9.694;2023-04-25T04:28:59;100439.25;;;5.98;87.59
77147;BME280;66121;52.584;9.694;2023-04-25T04:31:25;100437.13;;;5.92;87.75
77147;BME280;66121;52.584;9.694;2023-04-25T04:33:50;100450.63;;;6.00;87.79
77147;BME280;66121;52.584;9.694;2023-04-25T04:36:17;100452.72;;;6.07;87.60
77147;BME280;66121;52.584;9.694;2023-04-25T04:38:45;100450.13;;;6.14;86.96
77147;BME280;66121;52.584;9.694;2023-04-25T04:41:10;100454.75;;;6.10;86.73
77147;BME280;66121;52.584;9.694;2023-04-25T04:43:35;100455.13;;;6.08;86.64
77147;BME280;66121;52.584;9.694;2023-04-25T04:46:02;100454.94;;;6.01;86.88
77147;BME280;66121;52.584;9.694;2023-04-25T04:48:31;100458.91;;;6.04;86.99
77147;BME280;66121;52.584;9.694;2023-04-25T04:50:58;100462.00;;;6.02;86.20
77147;BME280;66121;52.584;9.694;2023-04-25T04:53:23;100458.91;;;6.04;86.93
77147;BME280;66121;52.584;9.694;2023-04-25T04:55:49;100470.09;;;6.14;85.07
77147;BME280;66121;52.584;9.694;2023-04-25T04:58:14;100470.09;;;6.14;84.83
77147;BME280;66121;52.584;9.694;2023-04-25T05:00:40;100471.47;;;6.24;83.77
77147;BME280;66121;52.584;9.694;2023-04-25T05:03:05;100454.88;;;6.17;84.94
77147;BME280;66121;52.584;9.694;2023-04-25T05:05:30;100479.69;;;6.24;85.27
77147;BME280;66121;52.584;9.694;2023-04-25T05:07:56;100473.91;;;6.10;84.36
77147;BME280;66121;52.584;9.694;2023-04-25T05:10:21;100477.50;;;6.14;84.53
77147;BME280;66121;52.584;9.694;2023-04-25T05:12:46;100475.00;;;6.24;84.73
77147;BME280;66121;52.584;9.694;2023-04-25T05:15:12;100486.34;;;6.23;83.88
77147;BME280;66121;52.584;9.694;2023-04-25T05:17:37;100493.78;;;6.41;84.41
77147;BME280;66121;52.584;9.694;2023-04-25T05:20:05;100491.63;;;6.70;83.10
77147;BME280;66121;52.584;9.694;2023-04-25T05:22:31;100488.81;;;6.85;81.72
77147;BME280;66121;52.584;9.694;2023-04-25T05:24:56;100491.88;;;7.03;81.96
77147;BME280;66121;52.584;9.694;2023-04-25T05:27:21;100488.22;;;7.18;81.77
77147;BME280;66121;52.584;9.694;2023-04-25T05:29:47;100491.25;;;7.36;81.14
77147;BME280;66121;52.584;9.694;2023-04-25T05:32:12;100508.97;;;7.38;79.79
77147;BME280;66121;52.584;9.694;2023-04-25T05:34:37;100498.59;;;7.28;80.49
77147;BME280;66121;52.584;9.694;2023-04-25T05:37:03;100508.72;;;7.24;79.90
77147;BME280;66121;52.584;9.694;2023-04-25T05:39:28;100507.19;;;7.27;78.82
77147;BME280;66121;52.584;9.694;2023-04-25T05:41:54;100508.16;;;7.15;79.70
77147;BME280;66121;52.584;9.694;2023-04-25T05:44:19;100502.84;;;7.26;79.08
77147;BME280;66121;52.584;9.694;2023-04-25T05:46:45;100505.59;;;7.03;78.84
77147;BME280;66121;52.584;9.694;2023-04-25T05:49:10;100519.16;;;7.15;80.22
77147;BME280;66121;52.584;9.694;2023-04-25T05:51:35;100513.16;;;7.09;79.77
77147;BME280;66121;52.584;9.694;2023-04-25T05:54:01;100525.66;;;7.07;80.42
77147;BME280;66121;52.584;9.694;2023-04-25T05:56:26;100528.09;;;7.12;79.73
77147;BME280;66121;52.584;9.694;2023-04-25T05:58:51;100525.47;;;7.19;79.98
77147;BME280;66121;52.584;9.694;2023-04-25T06:01:17;100533.41;;;7.24;80.50
77147;BME280;66121;52.584;9.694;2023-04-25T06:03:42;100532.88;;;7.38;79.08
77147;BME280;66121;52.584;9.694;2023-04-25T06:06:08;100540.16;;;7.49;79.03
77147;BME280;66121;52.584;9.694;2023-04-25T06:08:34;100539.72;;;7.70;78.30
77147;BME280;66121;52.584;9.694;2023-04-25T06:10:59;100546.06;;;7.74;77.28
77147;BME280;66121;52.584;9.694;2023-04-25T06:13:25;100549.91;;;7.69;77.81
77147;BME280;66121;52.584;9.694;2023-04-25T06:15:50;100540.13;;;7.72;78.45
77147;BME280;66121;52.584;9.694;2023-04-25T06:18:16;100549.63;;;7.78;76.07
77147;BME280;66121;52.584;9.694;2023-04-25T06:20:41;100547.81;;;7.63;77.65
77147;BME280;66121;52.584;9.694;2023-04-25T06:23:06;100557.53;;;7.79;77.04
77147;BME280;66121;52.584;9.694;2023-04-25T06:25:32;100558.25;;;7.76;78.39
77147;BME280;66121;52.584;9.694;2023-04-25T06:27:57;100563.44;;;7.82;76.64
77147;BME280;66121;52.584;9.694;2023-04-25T06:30:23;100564.34;;;7.89;77.02
77147;BME280;66121;52.584;9.694;2023-04-25T06:32:51;100572.19;;;7.87;75.51
77147;BME280;66121;52.584;9.694;2023-04-25T06:35:16;100578.09;;;7.89;75.90
77147;BME280;66121;52.584;9.694;2023-04-25T06:37:41;100575.88;;;7.75;76.62
77147;BME280;66121;52.584;9.694;2023-04-25T06:40:07;100579.09;;;7.77;75.23
77147;BME280;66121;52.584;9.694;2023-04-25T06:42:33;100573.81;;;7.92;73.52
77147;BME280;66121;52.584;9.694;2023-04-25T06:44:58;100572.53;;;7.86;73.85
77147;BME280;66121;52.584;9.694;2023-04-25T06:47:23;100575.03;;;7.71;74.63
77147;BME280;66121;52.584;9.694;2023-04-25T06:49:49;100576.56;;;7.69;74.09
77147;BME280;66121;52.584;9.694;2023-04-25T06:52:14;100565.69;;;7.76;74.35
77147;BME280;66121;52.584;9.694;2023-04-25T06:54:40;100578.81;;;7.63;73.81
77147;BME280;66121;52.584;9.694;2023-04-25T06:57:05;100567.00;;;7.59;73.79
77147;BME280;66121;52.584;9.694;2023-04-25T06:59:30;100574.44;;;7.59;73.68
77147;BME280;66121;52.584;9.694;2023-04-25T07:01:55;100580.31;;;7.38;72.51
77147;BME280;66121;52.584;9.694;2023-04-25T07:04:21;100585.91;;;7.64;72.73
77147;BME280;66121;52.584;9.694;2023-04-25T07:06:46;100588.34;;;7.69;73.80
77147;BME280;66121;52.584;9.694;2023-04-25T07:09:13;100586.75;;;7.68;72.91
77147;BME280;66121;52.584;9.694;2023-04-25T07:11:38;100587.63;;;7.72;72.45
77147;BME280;66121;52.584;9.694;2023-04-25T07:14:03;100590.59;;;7.87;72.40
77147;BME280;66121;52.584;9.694;2023-04-25T07:16:29;100580.16;;;7.96;71.44
77147;BME280;66121;52.584;9.694;2023-04-25T07:18:54;100582.97;;;7.76;70.90
77147;BME280;66121;52.584;9.694;2023-04-25T07:21:20;100585.59;;;7.92;72.58
77147;BME280;66121;52.584;9.694;2023-04-25T07:23:45;100584.53;;;8.00;71.75
77147;BME280;66121;52.584;9.694;2023-04-25T07:26:11;100583.88;;;7.84;72.38
77147;BME280;66121;52.584;9.694;2023-04-25T07:28:37;100593.88;;;7.96;72.61
77147;BME280;66121;52.584;9.694;2023-04-25T07:31:02;100599.94;;;8.05;68.93
77147;BME280;66121;52.584;9.694;2023-04-25T07:33:28;100598.88;;;8.35;68.20
77147;BME280;66121;52.584;9.694;2023-04-25T07:35:54;100601.19;;;8.33;68.66
77147;BME280;66121;52.584;9.694;2023-04-25T07:38:20;100594.44;;;8.54;68.96
77147;BME280;66121;52.584;9.694;2023-04-25T07:40:48;100604.47;;;8.69;66.80
77147;BME280;66121;52.584;9.694;2023-04-25T07:43:14;100609.88;;;8.91;65.53
77147;BME280;66121;52.584;9.694;2023-04-25T07:45:42;100613.41;;;9.22;65.99
77147;BME280;66121;52.584;9.694;2023-04-25T07:48:07;100612.31;;;9.30;64.15
77147;BME280;66121;52.584;9.694;2023-04-25T07:50:33;100623.06;;;9.79;60.94
77147;BME280;66121;52.584;9.694;2023-04-25T07:52:58;100616.97;;;10.03;60.12
77147;BME280;66121;52.584;9.694;2023-04-25T07:55:23;100626.34;;;10.39;60.09
77147;BME280;66121;52.584;9.694;2023-04-25T07:57:49;100616.22;;;10.53;59.91
77147;BME280;66121;52.584;9.694;2023-04-25T08:00:14;100615.31;;;11.04;58.41
77147;BME280;66121;52.584;9.694;2023-04-25T08:02:40;100616.03;;;10.86;55.44
77147;BME280;66121;52.584;9.694;2023-04-25T08:05:05;100629.13;;;11.04;55.86
77147;BME280;66121;52.584;9.694;2023-04-25T08:07:33;100628.13;;;10.64;57.33
77147;BME280;66121;52.584;9.694;2023-04-25T08:09:58;100628.69;;;10.98;55.33
77147;BME280;66121;52.584;9.694;2023-04-25T08:12:24;100614.22;;;11.29;57.90
77147;BME280;66121;52.584;9.694;2023-04-25T08:14:50;100622.00;;;10.99;56.42
77147;BME280;66121;52.584;9.694;2023-04-25T08:17:15;100631.78;;;12.07;56.24
77147;BME280;66121;52.584;9.694;2023-04-25T08:19:40;100640.00;;;11.61;56.72
77147;BME280;66121;52.584;9.694;2023-04-25T08:22:06;100634.41;;;11.47;52.90
77147;BME280;66121;52.584;9.694;2023-04-25T08:24:31;100640.56;;;10.41;55.25
77147;BME280;66121;52.584;9.694;2023-04-25T08:26:56;100642.53;;;9.96;57.79
77147;BME280;66121;52.584;9.694;2023-04-25T08:29:23;100653.38;;;9.79;57.42
77147;BME280;66121;52.584;9.694;2023-04-25T08:31:50;100652.63;;;9.82;57.50
77147;BME280;66121;52.584;9.694;2023-04-25T08:34:17;100652.53;;;10.62;56.71
77147;BME280;66121;52.584;9.694;2023-04-25T08:36:43;100648.03;;;10.40;57.14
77147;BME280;66121;52.584;9.694;2023-04-25T08:39:08;100651.53;;;9.93;57.92
77147;BME280;66121;52.584;9.694;2023-04-25T08:41:35;100665.19;;;9.79;57.04
77147;BME280;66121;52.584;9.694;2023-04-25T08:44:02;100666.47;;;9.52;58.25
77147;BME280;66121;52.584;9.694;2023-04-25T08:46:28;100662.34;;;9.05;59.45
77147;BME280;66121;52.584;9.694;2023-04-25T08:49:00;100666.16;;;8.97;58.86
77147;BME280;66121;52.584;9.694;2023-04-25T08:51:26;100672.94;;;9.03;61.75
77147;BME280;66121;52.584;9.694;2023-04-25T08:54:01;100675.13;;;8.91;61.22
77147;BME280;66121;52.584;9.694;2023-04-25T08:56:33;100678.03;;;9.01;60.62
77147;BME280;66121;52.584;9.694;2023-04-25T08:59:01;100679.84;;;9.20;60.13
77147;BME280;66121;52.584;9.694;2023-04-25T09:01:27;100682.75;;;9.67;61.04
77147;BME280;66121;52.584;9.694;2023-04-25T09:03:52;100679.44;;;10.76;57.34
77147;BME280;66121;52.584;9.694;2023-04-25T09:06:19;100685.38;;;11.60;55.09
77147;BME280;66121;52.584;9.694;2023-04-25T09:08:44;100684.34;;;12.32;54.90
77147;BME280;66121;52.584;9.694;2023-04-25T09:11:10;100691.47;;;12.54;51.05
77147;BME280;66121;52.584;9.694;2023-04-25T09:13:35;100682.78;;;12.56;50.43
77147;BME280;66121;52.584;9.694;2023-04-25T09:16:01;100689.03;;;13.02;52.88
77147;BME280;66121;52.584;9.694;2023-04-25T09:18:28;100685.59;;;13.78;51.31
77147;BME280;66121;52.584;9.694;2023-04-25T09:20:55;100687.75;;;13.42;48.63
77147;BME280;66121;52.584;9.694;2023-04-25T09:23:22;100695.84;;;13.84;48.93
77147;BME280;66121;52.584;9.694;2023-04-25T09:25:49;100698.66;;;13.81;50.86
77147;BME280;66121;52.584;9.694;2023-04-25T09:28:15;100714.09;;;14.47;48.26
77147;BME280;66121;52.584;9.694;2023-04-25T09:30:41;100709.16;;;13.24;48.57
77147;BME280;66121;52.584;9.694;2023-04-25T09:33:08;100713.22;;;12.38;48.44
77147;BME280;66121;52.584;9.694;2023-04-25T09:35:37;100724.06;;;11.60;49.55
77147;BME280;66121;52.584;9.694;2023-04-25T09:40:39;100740.88;;;10.22;53.01
77147;BME280;66121;52.584;9.694;2023-04-25T09:43:09;100730.25;;;9.91;53.09
77147;BME280;66121;52.584;9.694;2023-04-25T09:45:41;100729.44;;;9.87;54.88
77147;BME280;66121;52.584;9.694;2023-04-25T09:48:06;100733.13;;;9.64;54.97
77147;BME280;66121;52.584;9.694;2023-04-25T09:50:32;100738.31;;;10.43;56.17
77147;BME280;66121;52.584;9.694;2023-04-25T09:53:04;100736.09;;;12.03;54.54
77147;BME280;66121;52.584;9.694;2023-04-25T09:55:34;100730.94;;;11.98;50.90
77147;BME280;66121;52.584;9.694;2023-04-25T09:58:04;100731.63;;;10.98;51.90
77147;BME280;66121;52.584;9.694;2023-04-25T10:00:32;100742.06;;;10.68;57.01
77147;BME280;66121;52.584;9.694;2023-04-25T10:03:01;100742.22;;;10.39;56.09
77147;BME280;66121;52.584;9.694;2023-04-25T10:05:30;100739.84;;;9.67;54.88
77147;BME280;66121;52.584;9.694;2023-04-25T10:07:59;100749.91;;;8.96;57.14
77147;BME280;66121;52.584;9.694;2023-04-25T10:10:26;100748.56;;;8.87;58.57
77147;BME280;66121;52.584;9.694;2023-04-25T10:12:53;100764.22;;;8.83;58.06
77147;BME280;66121;52.584;9.694;2023-04-25T10:15:19;100777.56;;;8.81;58.10
77147;BME280;66121;52.584;9.694;2023-04-25T10:17:45;100779.16;;;8.82;58.59
77147;BME280;66121;52.584;9.694;2023-04-25T10:20:11;100795.59;;;8.78;59.90
77147;BME280;66121;52.584;9.694;2023-04-25T10:22:42;100796.88;;;8.84;61.79
77147;BME280;66121;52.584;9.694;2023-04-25T10:25:09;100796.63;;;8.93;61.39
77147;BME280;66121;52.584;9.694;2023-04-25T10:27:35;100794.06;;;8.81;61.20
77147;BME280;66121;52.584;9.694;2023-04-25T10:30:08;100795.13;;;9.25;59.85
77147;BME280;66121;52.584;9.694;2023-04-25T10:32:36;100794.59;;;9.42;58.36
77147;BME280;66121;52.584;9.694;2023-04-25T10:35:25;100782.19;;;9.55;60.07
77147;BME280;66121;52.584;9.694;2023-04-25T10:37:57;100794.00;;;9.86;57.98
77147;BME280;66121;52.584;9.694;2023-04-25T10:40:23;100775.25;;;9.98;58.40
77147;BME280;66121;52.584;9.694;2023-04-25T10:42:48;100784.03;;;10.11;57.32
77147;BME280;66121;52.584;9.694;2023-04-25T10:45:14;100796.03;;;10.25;56.44
77147;BME280;66121;52.584;9.694;2023-04-25T10:47:44;100784.03;;;10.11;56.75
77147;BME280;66121;52.584;9.694;2023-04-25T10:50:10;100804.78;;;10.34;55.30
77147;BME280;66121;52.584;9.694;2023-04-25T10:52:38;100793.25;;;10.62;55.92
77147;BME280;66121;52.584;9.694;2023-04-25T10:55:04;100792.38;;;11.67;52.32
77147;BME280;66121;52.584;9.694;2023-04-25T10:57:32;100783.59;;;12.79;50.91
77147;BME280;66121;52.584;9.694;2023-04-25T11:00:18;100782.81;;;12.89;48.10
77147;BME280;66121;52.584;9.694;2023-04-25T11:02:48;100785.59;;;12.72;49.56
77147;BME280;66121;52.584;9.694;2023-04-25T11:05:35;100786.34;;;12.48;50.42
77147;BME280;66121;52.584;9.694;2023-04-25T11:08:01;100786.63;;;12.00;51.31
77147;BME280;66121;52.584;9.694;2023-04-25T11:10:30;100778.34;;;11.21;51.18
77147;BME280;66121;52.584;9.694;2023-04-25T11:12:57;100773.81;;;10.95;52.21
77147;BME280;66121;52.584;9.694;2023-04-25T11:15:23;100796.78;;;10.59;53.56
77147;BME280;66121;52.584;9.694;2023-04-25T11:17:51;100794.81;;;10.19;55.67
77147;BME280;66121;52.584;9.694;2023-04-25T11:20:16;100799.75;;;9.73;55.54
77147;BME280;66121;52.584;9.694;2023-04-25T11:22:44;100813.66;;;9.54;59.21
77147;BME280;66121;52.584;9.694;2023-04-25T11:25:11;100815.53;;;9.21;61.78
77147;BME280;66121;52.584;9.694;2023-04-25T11:27:53;100821.56;;;9.03;63.08
77147;BME280;66121;52.584;9.694;2023-04-25T11:30:20;100826.22;;;8.99;61.99
77147;BME280;66121;52.584;9.694;2023-04-25T11:32:46;100824.44;;;8.88;60.30
77147;BME280;66121;52.584;9.694;2023-04-25T11:35:12;100819.56;;;9.27;59.90
77147;BME280;66121;52.584;9.694;2023-04-25T11:37:41;100823.25;;;9.38;57.98
77147;BME280;66121;52.584;9.694;2023-04-25T11:40:07;100819.78;;;10.33;58.09
77147;BME280;66121;52.584;9.694;2023-04-25T11:42:36;100831.13;;;11.13;61.26
77147;BME280;66121;52.584;9.694;2023-04-25T11:45:03;100824.78;;;11.67;53.67
77147;BME280;66121;52.584;9.694;2023-04-25T11:47:30;100829.09;;;11.60;55.53
77147;BME280;66121;52.584;9.694;2023-04-25T11:49:58;100835.50;;;11.75;54.55
77147;BME280;66121;52.584;9.694;2023-04-25T11:52:23;100824.97;;;12.05;54.35
77147;BME280;66121;52.584;9.694;2023-04-25T11:54:48;100830.31;;;13.13;51.77
77147;BME280;66121;52.584;9.694;2023-04-25T11:57:13;100827.53;;;13.41;51.71
77147;BME280;66121;52.584;9.694;2023-04-25T11:59:39;100821.19;;;13.51;48.51
77147;BME280;66121;52.584;9.694;2023-04-25T12:02:04;100830.63;;;12.48;47.83
77147;BME280;66121;52.584;9.694;2023-04-25T12:04:32;100839.06;;;11.79;50.23
77147;BME280;66121;52.584;9.694;2023-04-25T12:06:57;100834.47;;;11.36;52.37
77147;BME280;66121;52.584;9.694;2023-04-25T12:09:30;100835.72;;;10.51;52.24
77147;BME280;66121;52.584;9.694;2023-04-25T12:11:58;100831.94;;;10.29;53.86
77147;BME280;66121;52.584;9.694;2023-04-25T12:14:26;100851.81;;;10.45;55.18
77147;BME280;66121;52.584;9.694;2023-04-25T12:16:54;100847.56;;;10.95;55.09
77147;BME280;66121;52.584;9.694;2023-04-25T12:19:20;100849.84;;;11.33;54.50
77147;BME280;66121;52.584;9.694;2023-04-25T12:21:47;100848.66;;;11.34;54.00
77147;BME280;66121;52.584;9.694;2023-04-25T12:24:14;100850.75;;;11.00;52.98
77147;BME280;66121;52.584;9.694;2023-04-25T12:27:04;100846.47;;;10.63;49.91
77147;BME280;66121;52.584;9.694;2023-04-25T12:29:31;100857.31;;;10.42;50.42
77147;BME280;66121;52.584;9.694;2023-04-25T12:31:57;100853.28;;;10.35;50.46
77147;BME280;66121;52.584;9.694;2023-04-25T12:34:23;100854.94;;;10.10;50.25
77147;BME280;66121;52.584;9.694;2023-04-25T12:36:50;100848.91;;;10.01;49.53
77147;BME280;66121;52.584;9.694;2023-04-25T12:39:23;100861.88;;;10.27;51.56
77147;BME280;66121;52.584;9.694;2023-04-25T12:41:52;100861.81;;;10.57;52.68
77147;BME280;66121;52.584;9.694;2023-04-25T12:44:19;100851.31;;;10.36;51.71
77147;BME280;66121;52.584;9.694;2023-04-25T12:46:44;100877.22;;;11.05;53.12
77147;BME280;66121;52.584;9.694;2023-04-25T12:49:10;100866.94;;;11.02;52.83
77147;BME280;66121;52.584;9.694;2023-04-25T12:51:36;100857.13;;;12.45;52.99
77147;BME280;66121;52.584;9.694;2023-04-25T12:54:03;100866.13;;;12.14;49.71
77147;BME280;66121;52.584;9.694;2023-04-25T12:56:29;100866.28;;;12.91;48.14